Time,TemperatureF,DewpointF,PressureIn,WindDirection,WindDirectionDegrees,WindSpeedMPH,WindSpeedGustMPH,Humidity,HourlyPrecipIn,Conditions,Clouds,dailyrainin,SolarRadiationWatts/m^2,SoftwareType,DateUTC
2013-02-10 00:00:00,12.0,9.1,30.25,NNE,31,0.0,0.0,88,0.00,CLR,BKN,0.00,0.0,WeatherDisplay:10.37,2013-02-10 05:00:00,
2013-02-10 00:05:00,11.8,9.0,30.25,NNE,31,0.0,0.0,88,0.00,FEW,BKN,0.00,0.0,WeatherDisplay:10.37,2013-02-10 05:05:00,
2013-02-10 00:10:00,11.8,9.0,30.24,NNE,31,0.0,0.0,88,0.00,FEW,BKN,0.00,0.0,WeatherDisplay:10.37,2013-02-10 05:10:00,
2013-02-10 00:15:00,12.0,9.1,30.25,NNE,30,0.0,0.0,88,0.00,FEW,BKN,0.00,0.0,WeatherDisplay:10.37,2013-02-10 05:15:00,
2013-02-10 00:20:00,12.0,9.1,30.25,NNE,30,0.0,0.0,88,0.00,FEW,BKN,0.00,0.0,WeatherDisplay:10.37,2013-02-10 05:20:00,
2013-02-10 00:25:00,12.0,9.1,30.25,NNE,30,0.0,0.0,88,0.00,FEW,BKN,0.00,0.0,WeatherDisplay:10.37,2013-02-10 05:25:00,
2013-02-10 00:30:00,12.0,9.1,30.25,NNE,31,0.0,0.0,88,0.00,FEW,BKN,0.00,0.0,WeatherDisplay:10.37,2013-02-10 05:30:00,
2013-02-10 00:35:00,11.8,9.0,30.25,NNE,31,0.0,0.0,88,0.00,FEW,BKN,0.00,0.0,WeatherDisplay:10.37,2013-02-10 05:35:00,
2013-02-10 00:40:00,11.7,8.8,30.25,NNE,31,0.0,0.0,88,0.00,FEW,BKN,0.00,0.0,WeatherDisplay:10.37,2013-02-10 05:40:00,
2013-02-10 00:45:00,12.0,9.1,30.24,NNE,31,0.2,1.1,88,0.00,FEW,BKN,0.00,0.0,WeatherDisplay:10.37,2013-02-10 05:45:00,
2013-02-10 00:50:00,12.0,9.1,30.24,NNE,31,0.0,0.0,88,0.00,FEW,BKN,0.00,0.0,WeatherDisplay:10.37,2013-02-10 05:50:00,
2013-02-10 00:55:00,12.0,9.1,30.24,NNE,31,0.0,0.0,88,0.00,FEW,BKN,0.00,0.0,WeatherDisplay:10.37,2013-02-10 05:55:00,
2013-02-10 01:00:00,12.0,9.1,30.23,NNE,31,0.2,1.1,88,0.00,FEW,BKN,0.00,0.0,WeatherDisplay:10.37,2013-02-10 06:00:00,
2013-02-10 01:05:00,12.0,9.1,30.24,NNE,31,0.0,0.0,88,0.00,FEW,BKN,0.00,0.0,WeatherDisplay:10.37,2013-02-10 06:05:00,
2013-02-10 01:10:00,12.0,9.1,30.24,NNE,31,0.0,0.0,88,0.00,FEW,BKN,0.00,0.0,WeatherDisplay:10.37,2013-02-10 06:10:00,
2013-02-10 01:15:00,11.8,9.0,30.24,NNE,31,0.0,0.0,88,0.00,FEW,BKN,0.00,0.0,WeatherDisplay:10.37,2013-02-10 06:15:00,
2013-02-10 01:20:00,11.7,8.8,30.24,NNE,31,0.0,0.0,88,0.00,FEW,BKN,0.00,0.0,WeatherDisplay:10.37,2013-02-10 06:20:00,
2013-02-10 01:25:00,11.7,8.8,30.23,NNE,31,0.0,0.0,88,0.00,FEW,BKN,0.00,0.0,WeatherDisplay:10.37,2013-02-10 06:25:00,
2013-02-10 01:30:00,11.5,8.4,30.23,NNE,31,0.0,0.0,87,0.00,FEW,BKN,0.00,0.0,WeatherDisplay:10.37,2013-02-10 06:30:00,
2013-02-10 01:35:00,11.5,8.4,30.24,NNE,30,0.3,1.1,87,0.00,FEW,BKN,0.00,0.0,WeatherDisplay:10.37,2013-02-10 06:35:00,
2013-02-10 01:40:00,11.3,8.2,30.24,NNE,31,0.0,0.0,87,0.00,FEW,BKN,0.00,0.0,WeatherDisplay:10.37,2013-02-10 06:40:00,
2013-02-10 01:45:00,10.8,7.7,30.24,NNE,31,0.0,0.0,87,0.00,FEW,BKN,0.00,0.0,WeatherDisplay:10.37,2013-02-10 06:45:00,
2013-02-10 01:50:00,10.6,7.5,30.24,NNE,31,0.0,0.0,87,0.00,FEW,BKN,0.00,0.0,WeatherDisplay:10.37,2013-02-10 06:50:00,
2013-02-10 01:55:00,10.2,7.1,30.24,NNE,31,0.1,1.1,87,0.00,FEW,BKN,0.00,0.0,WeatherDisplay:10.37,2013-02-10 06:55:00,
2013-02-10 02:00:00,9.9,6.5,30.24,NNE,31,0.7,1.1,86,0.00,FEW,BKN,0.00,0.0,WeatherDisplay:10.37,2013-02-10 07:00:00,
2013-02-10 02:05:00,9.9,6.8,30.24,NNE,31,1.2,2.3,87,0.00,FEW,BKN,0.00,0.0,WeatherDisplay:10.37,2013-02-10 07:05:00,
2013-02-10 02:10:00,10.0,6.9,30.24,NNE,31,0.6,1.1,87,0.00,FEW,BKN,0.00,0.0,WeatherDisplay:10.37,2013-02-10 07:10:00,
2013-02-10 02:15:00,9.9,6.8,30.24,NNE,31,0.9,1.1,87,0.00,FEW,BKN,0.00,0.0,WeatherDisplay:10.37,2013-02-10 07:15:00,
2013-02-10 02:20:00,9.7,6.6,30.24,NNE,31,0.6,1.1,87,0.00,FEW,BKN,0.00,0.0,WeatherDisplay:10.37,2013-02-10 07:20:00,
2013-02-10 02:25:00,9.5,6.2,30.24,NNE,31,0.8,1.4,86,0.00,FEW,BKN,0.00,0.0,WeatherDisplay:10.37,2013-02-10 07:25:00,
2013-02-10 02:30:00,9.7,6.6,30.23,NNE,30,0.0,0.0,87,0.00,FEW,BKN,0.00,0.0,WeatherDisplay:10.37,2013-02-10 07:30:00,
2013-02-10 02:35:00,9.9,6.8,30.23,NNE,31,0.0,0.0,87,0.00,FEW,BKN,0.00,0.0,WeatherDisplay:10.37,2013-02-10 07:35:00,
2013-02-10 02:40:00,9.7,6.6,30.23,NNE,31,0.6,1.1,87,0.00,FEW,BKN,0.00,0.0,WeatherDisplay:10.37,2013-02-10 07:40:00,
2013-02-10 02:45:00,9.7,6.6,30.23,NNE,31,0.5,1.1,87,0.00,FEW,BKN,0.00,0.0,WeatherDisplay:10.37,2013-02-10 07:45:00,
2013-02-10 02:50:00,9.7,6.6,30.23,NNE,31,0.0,0.0,87,0.00,FEW,BKN,0.00,0.0,WeatherDisplay:10.37,2013-02-10 07:50:00,
2013-02-10 02:55:00,9.5,6.4,30.23,NNE,31,1.1,1.4,87,0.00,FEW,BKN,0.00,0.0,WeatherDisplay:10.37,2013-02-10 07:55:00,
2013-02-10 03:00:00,9.7,6.8,30.22,NNE,30,1.1,1.1,88,0.00,FEW,BKN,0.00,0.0,WeatherDisplay:10.37,2013-02-10 08:00:00,
2013-02-10 03:05:00,9.9,7.0,30.23,NNE,31,1.1,2.3,88,0.00,FEW,BKN,0.00,0.0,WeatherDisplay:10.37,2013-02-10 08:05:00,
2013-02-10 03:10:00,10.2,7.6,30.23,NNE,31,1.1,2.3,89,0.00,FEW,BKN,0.00,0.0,WeatherDisplay:10.37,2013-02-10 08:10:00,
2013-02-10 03:15:00,10.8,8.2,30.23,NNE,31,0.0,0.0,89,0.00,FEW,BKN,0.00,0.0,WeatherDisplay:10.37,2013-02-10 08:15:00,
2013-02-10 03:20:00,10.9,8.1,30.22,NNE,31,0.0,0.0,88,0.00,FEW,BKN,0.00,0.0,WeatherDisplay:10.37,2013-02-10 08:20:00,
2013-02-10 03:25:00,11.1,8.3,30.22,NNE,31,0.1,1.1,88,0.00,FEW,BKN,0.00,0.0,WeatherDisplay:10.37,2013-02-10 08:25:00,
2013-02-10 03:30:00,11.1,8.3,30.22,NNE,31,0.1,1.1,88,0.00,FEW,BKN,0.00,0.0,WeatherDisplay:10.37,2013-02-10 08:30:00,
2013-02-10 03:35:00,11.3,8.4,30.22,NNE,30,0.0,0.0,88,0.00,FEW,BKN,0.00,0.0,WeatherDisplay:10.37,2013-02-10 08:35:00,
2013-02-10 03:40:00,11.3,8.4,30.22,NNE,31,0.3,1.1,88,0.00,FEW,BKN,0.00,0.0,WeatherDisplay:10.37,2013-02-10 08:40:00,
2013-02-10 03:45:00,11.1,8.3,30.22,NNE,31,0.0,0.0,88,0.00,FEW,BKN,0.00,0.0,WeatherDisplay:10.37,2013-02-10 08:45:00,
2013-02-10 03:50:00,11.1,8.0,30.22,NNE,31,0.7,1.4,87,0.00,FEW,BKN,0.00,0.0,WeatherDisplay:10.37,2013-02-10 08:50:00,
2013-02-10 03:55:00,11.1,8.3,30.22,NNE,30,0.8,1.5,88,0.00,FEW,BKN,0.00,0.0,WeatherDisplay:10.37,2013-02-10 08:55:00,
2013-02-10 04:00:00,11.1,8.3,30.22,NNE,31,1.1,2.3,88,0.00,FEW,BKN,0.00,0.0,WeatherDisplay:10.37,2013-02-10 09:00:00,
2013-02-10 04:05:00,10.9,8.1,30.22,NNE,31,1.2,2.3,88,0.00,FEW,BKN,0.00,0.0,WeatherDisplay:10.37,2013-02-10 09:05:00,
2013-02-10 04:10:00,10.9,8.1,30.22,NNE,31,1.2,2.3,88,0.00,FEW,BKN,0.00,0.0,WeatherDisplay:10.37,2013-02-10 09:10:00,
2013-02-10 04:15:00,10.4,7.3,30.22,NNE,31,1.4,2.3,87,0.00,FEW,BKN,0.00,0.0,WeatherDisplay:10.37,2013-02-10 09:15:00,
2013-02-10 04:20:00,10.2,7.1,30.22,NNE,31,0.0,0.0,87,0.00,FEW,BKN,0.00,0.0,WeatherDisplay:10.37,2013-02-10 09:20:00,
2013-02-10 04:25:00,9.9,6.5,30.22,NNE,30,0.0,1.1,86,0.00,FEW,BKN,0.00,0.0,WeatherDisplay:10.37,2013-02-10 09:25:00,
2013-02-10 04:30:00,9.7,6.3,30.22,NNE,31,0.2,1.4,86,0.00,FEW,BKN,0.00,0.0,WeatherDisplay:10.37,2013-02-10 09:30:00,
2013-02-10 04:35:00,9.7,6.3,30.22,NNE,31,0.9,1.1,86,0.00,FEW,BKN,0.00,0.0,WeatherDisplay:10.37,2013-02-10 09:35:00,
2013-02-10 04:40:00,9.7,6.3,30.22,NNE,31,0.0,0.0,86,0.00,FEW,BKN,0.00,0.0,WeatherDisplay:10.37,2013-02-10 09:40:00,
2013-02-10 04:45:00,9.5,6.2,30.22,NNE,31,0.0,0.0,86,0.00,FEW,BKN,0.00,0.0,WeatherDisplay:10.37,2013-02-10 09:45:00,
2013-02-10 04:50:00,9.1,5.8,30.22,NNE,31,0.6,1.1,86,0.00,FEW,BKN,0.00,0.0,WeatherDisplay:10.37,2013-02-10 09:50:00,
2013-02-10 04:55:00,9.0,5.6,30.21,NNE,31,0.1,0.0,86,0.00,FEW,BKN,0.00,0.0,WeatherDisplay:10.37,2013-02-10 09:55:00,
2013-02-10 05:00:00,9.0,5.6,30.21,NNE,31,0.0,1.1,86,0.00,FEW,BKN,0.00,0.0,WeatherDisplay:10.37,2013-02-10 10:00:00,
2013-02-10 05:05:00,9.0,5.6,30.21,NNE,31,0.2,1.1,86,0.00,FEW,BKN,0.00,0.0,WeatherDisplay:10.37,2013-02-10 10:05:00,
2013-02-10 05:10:00,9.3,6.0,30.21,NNE,30,0.9,2.3,86,0.00,FEW,BKN,0.00,0.0,WeatherDisplay:10.37,2013-02-10 10:10:00,
2013-02-10 05:15:00,9.7,6.6,30.20,NNE,31,0.3,1.5,87,0.00,FEW,BKN,0.00,0.0,WeatherDisplay:10.37,2013-02-10 10:15:00,
2013-02-10 05:20:00,10.0,6.9,30.21,NNE,31,0.5,1.5,87,0.00,FEW,BKN,0.00,0.0,WeatherDisplay:10.37,2013-02-10 10:20:00,
2013-02-10 05:25:00,10.0,6.9,30.20,NNE,31,0.1,0.0,87,0.00,FEW,BKN,0.00,0.0,WeatherDisplay:10.37,2013-02-10 10:25:00,
2013-02-10 05:30:00,10.2,7.1,30.19,NNE,31,0.0,1.1,87,0.00,FEW,BKN,0.00,0.0,WeatherDisplay:10.37,2013-02-10 10:30:00,
2013-02-10 05:35:00,10.0,6.9,30.19,NNE,31,0.7,2.3,87,0.00,FEW,BKN,0.00,0.0,WeatherDisplay:10.37,2013-02-10 10:35:00,
2013-02-10 05:40:00,10.0,6.9,30.20,NNE,31,0.0,0.0,87,0.00,FEW,BKN,0.00,0.0,WeatherDisplay:10.37,2013-02-10 10:40:00,
2013-02-10 05:45:00,9.9,6.5,30.19,NNE,31,0.0,1.1,86,0.00,FEW,BKN,0.00,0.0,WeatherDisplay:10.37,2013-02-10 10:45:00,
2013-02-10 05:50:00,9.9,6.5,30.19,NNE,31,0.1,1.1,86,0.00,FEW,BKN,0.00,0.0,WeatherDisplay:10.37,2013-02-10 10:50:00,
2013-02-10 05:55:00,9.7,6.3,30.19,NNE,31,0.0,1.1,86,0.00,FEW,BKN,0.00,0.0,WeatherDisplay:10.37,2013-02-10 10:55:00,
2013-02-10 06:00:00,9.7,6.3,30.19,NNE,31,1.7,3.5,86,0.00,FEW,BKN,0.00,0.0,WeatherDisplay:10.37,2013-02-10 11:00:00,
2013-02-10 06:05:00,9.3,6.0,30.19,NNE,31,1.7,2.3,86,0.00,FEW,BKN,0.00,0.0,WeatherDisplay:10.37,2013-02-10 11:05:00,
2013-02-10 06:10:00,9.1,6.1,30.20,NNE,31,2.5,3.5,87,0.00,FEW,BKN,0.00,0.0,WeatherDisplay:10.37,2013-02-10 11:10:00,
2013-02-10 06:15:00,9.1,6.1,30.20,NNE,31,2.4,3.5,87,0.00,FEW,BKN,0.00,0.0,WeatherDisplay:10.37,2013-02-10 11:15:00,
2013-02-10 06:20:00,9.0,5.9,30.21,NNE,31,3.0,4.6,87,0.00,FEW,BKN,0.00,0.0,WeatherDisplay:10.37,2013-02-10 11:20:00,
2013-02-10 06:25:00,9.3,6.2,30.21,NNE,31,1.3,2.3,87,0.00,FEW,BKN,0.00,0.0,WeatherDisplay:10.37,2013-02-10 11:25:00,
2013-02-10 06:30:00,9.3,6.2,30.21,NNE,31,1.5,2.3,87,0.00,FEW,BKN,0.00,0.0,WeatherDisplay:10.37,2013-02-10 11:30:00,
2013-02-10 06:35:00,9.3,6.2,30.21,NNE,31,0.2,1.1,87,0.00,FEW,BKN,0.00,0.0,WeatherDisplay:10.37,2013-02-10 11:35:00,
2013-02-10 06:40:00,9.0,5.9,30.21,NNE,31,1.3,2.8,87,0.00,FEW,BKN,0.00,0.0,WeatherDisplay:10.37,2013-02-10 11:40:00,
2013-02-10 06:45:00,8.4,5.1,30.21,NNE,31,2.3,3.5,86,0.00,FEW,BKN,0.00,0.0,WeatherDisplay:10.37,2013-02-10 11:45:00,
2013-02-10 06:50:00,8.4,5.1,30.21,NNE,31,2.7,3.5,86,0.00,FEW,BKN,0.00,0.0,WeatherDisplay:10.37,2013-02-10 11:50:00,
2013-02-10 06:55:00,9.0,5.9,30.21,NNE,30,1.0,2.3,87,0.00,FEW,BKN,0.00,0.0,WeatherDisplay:10.37,2013-02-10 11:55:00,
2013-02-10 07:00:00,9.3,6.2,30.22,NNE,31,0.6,1.4,87,0.00,FEW,BKN,0.00,0.0,WeatherDisplay:10.37,2013-02-10 12:00:00,
2013-02-10 07:05:00,9.3,6.2,30.21,NNE,31,1.2,2.3,87,0.00,FEW,BKN,0.00,0.0,WeatherDisplay:10.37,2013-02-10 12:05:00,
2013-02-10 07:10:00,9.7,6.6,30.21,NNE,31,0.1,1.1,87,0.00,FEW,BKN,0.00,0.0,WeatherDisplay:10.37,2013-02-10 12:10:00,
2013-02-10 07:15:00,9.7,6.6,30.21,NNE,31,0.0,0.7,87,0.00,FEW,BKN,0.00,0.0,WeatherDisplay:10.37,2013-02-10 12:15:00,
2013-02-10 07:20:00,9.7,6.6,30.20,NNE,31,1.9,3.7,87,0.00,CLR,BKN,0.00,0.0,WeatherDisplay:10.37,2013-02-10 12:20:00,
2013-02-10 07:25:00,9.7,6.6,30.21,NNE,31,2.5,4.6,87,0.00,CLR,BKN,0.00,0.0,WeatherDisplay:10.37,2013-02-10 12:25:00,
2013-02-10 07:30:00,10.0,7.2,30.21,NNE,30,2.5,3.5,88,0.00,CLR,BKN,0.00,0.0,WeatherDisplay:10.37,2013-02-10 12:30:00,
2013-02-10 07:35:00,10.8,8.2,30.21,NNE,31,2.1,3.5,89,0.00,CLR,BKN,0.00,0.0,WeatherDisplay:10.37,2013-02-10 12:35:00,
2013-02-10 07:40:00,10.9,8.1,30.21,NNE,31,1.7,3.2,88,0.00,CLR,BKN,0.00,0.0,WeatherDisplay:10.37,2013-02-10 12:40:00,
2013-02-10 07:45:00,11.5,8.6,30.21,NNE,31,1.8,2.4,88,0.00,CLR,BKN,0.00,0.0,WeatherDisplay:10.37,2013-02-10 12:45:00,
2013-02-10 07:50:00,11.7,8.8,30.21,NNE,31,2.1,3.8,88,0.00,CLR,BKN,0.00,0.0,WeatherDisplay:10.37,2013-02-10 12:50:00,
2013-02-10 07:55:00,11.8,9.2,30.21,NNE,31,2.6,4.6,89,0.00,CLR,BKN,0.00,0.0,WeatherDisplay:10.37,2013-02-10 12:55:00,
2013-02-10 08:00:00,12.4,10.0,30.22,NNE,30,2.0,4.8,90,0.00,CLR,BKN,0.00,0.0,WeatherDisplay:10.37,2013-02-10 13:00:00,
2013-02-10 08:05:00,12.9,10.5,30.22,NNE,31,2.6,3.5,90,0.00,CLR,BKN,0.00,0.0,WeatherDisplay:10.37,2013-02-10 13:05:00,
2013-02-10 08:10:00,13.3,10.9,30.22,NNE,31,2.5,3.5,90,0.00,CLR,BKN,0.00,0.0,WeatherDisplay:10.37,2013-02-10 13:10:00,
2013-02-10 08:15:00,13.8,11.4,30.22,NNE,31,1.7,2.4,90,0.00,CLR,BKN,0.00,0.0,WeatherDisplay:10.37,2013-02-10 13:15:00,
2013-02-10 08:20:00,14.2,11.8,30.22,NNE,31,1.3,2.9,90,0.00,SCT,BKN,0.00,106.9,WeatherDisplay:10.37,2013-02-10 13:20:00,
2013-02-10 08:25:00,14.4,12.0,30.22,NNE,31,0.9,4.6,90,0.00,SCT,BKN,0.00,96.9,WeatherDisplay:10.37,2013-02-10 13:25:00,
2013-02-10 08:30:00,15.1,12.7,30.22,NNE,31,1.7,2.3,90,0.00,SCT,BKN,0.00,92.3,WeatherDisplay:10.37,2013-02-10 13:30:00,
2013-02-10 08:35:00,15.6,13.2,30.21,NNE,31,0.6,2.5,90,0.00,SCT,BKN,0.00,164.0,WeatherDisplay:10.37,2013-02-10 13:35:00,
2013-02-10 08:40:00,16.0,13.6,30.21,NNE,31,0.9,2.3,90,0.00,SCT,BKN,0.00,392.4,WeatherDisplay:10.37,2013-02-10 13:40:00,
2013-02-10 08:45:00,16.3,13.9,30.21,NNE,31,1.4,3.5,90,0.00,SCT,BKN,0.00,225.1,WeatherDisplay:10.37,2013-02-10 13:45:00,
2013-02-10 08:50:00,16.7,14.3,30.21,NNE,31,1.5,2.3,90,0.00,SCT,BKN,0.00,276.9,WeatherDisplay:10.37,2013-02-10 13:50:00,
2013-02-10 08:55:00,16.7,14.3,30.21,NNE,31,3.9,4.6,90,0.00,SCT,BKN,0.00,436.2,WeatherDisplay:10.37,2013-02-10 13:55:00,
2013-02-10 09:00:00,16.7,14.3,30.21,NNE,31,3.0,4.6,90,0.00,SCT,BKN,0.00,447.5,WeatherDisplay:10.37,2013-02-10 14:00:00,
2013-02-10 09:05:00,17.6,15.2,30.22,NNE,31,1.3,2.3,90,0.00,SCT,BKN,0.00,474.8,WeatherDisplay:10.37,2013-02-10 14:05:00,
2013-02-10 09:10:00,18.3,15.9,30.21,NNE,31,0.8,3.5,90,0.00,SCT,BKN,0.00,508.6,WeatherDisplay:10.37,2013-02-10 14:10:00,
2013-02-10 09:15:00,19.2,16.8,30.21,NNE,31,0.2,0.0,90,0.00,SCT,BKN,0.00,515.3,WeatherDisplay:10.37,2013-02-10 14:15:00,
2013-02-10 09:20:00,20.3,17.8,30.21,NNE,31,0.5,2.3,90,0.00,SCT,BKN,0.00,520.6,WeatherDisplay:10.37,2013-02-10 14:20:00,
2013-02-10 09:25:00,21.4,18.9,30.21,NNE,31,0.0,0.0,90,0.00,SCT,BKN,0.00,533.2,WeatherDisplay:10.37,2013-02-10 14:25:00,
2013-02-10 09:30:00,22.3,19.8,30.21,NNE,31,0.9,2.3,90,0.00,SCT,BKN,0.00,535.2,WeatherDisplay:10.37,2013-02-10 14:30:00,
2013-02-10 09:35:00,22.6,20.1,30.21,NNE,31,1.2,2.3,90,0.00,SCT,BKN,0.00,541.2,WeatherDisplay:10.37,2013-02-10 14:35:00,
2013-02-10 09:40:00,22.5,20.2,30.20,NNE,31,2.4,3.5,91,0.00,SCT,BKN,0.00,551.1,WeatherDisplay:10.37,2013-02-10 14:40:00,
2013-02-10 09:45:00,22.5,20.2,30.20,NNE,31,1.4,3.0,91,0.00,SCT,BKN,0.00,549.1,WeatherDisplay:10.37,2013-02-10 14:45:00,
2013-02-10 09:50:00,22.6,20.4,30.20,NNE,31,0.5,2.3,91,0.00,SCT,BKN,0.00,551.1,WeatherDisplay:10.37,2013-02-10 14:50:00,
2013-02-10 09:55:00,23.4,21.1,30.19,NNE,30,0.0,2.3,91,0.00,SCT,BKN,0.00,557.8,WeatherDisplay:10.37,2013-02-10 14:55:00,
2013-02-10 10:00:00,24.3,22.0,30.19,NNE,31,0.3,2.3,91,0.00,SCT,BKN,0.00,565.7,WeatherDisplay:10.37,2013-02-10 15:00:00,
2013-02-10 10:05:00,25.5,23.3,30.19,NNE,31,0.0,0.0,91,0.00,SCT,BKN,0.00,575.7,WeatherDisplay:10.37,2013-02-10 15:05:00,
2013-02-10 10:10:00,26.8,24.5,30.19,NNE,31,0.0,0.0,91,0.00,SCT,BKN,0.00,551.1,WeatherDisplay:10.37,2013-02-10 15:10:00,
2013-02-10 10:15:00,27.5,25.5,30.19,NNE,30,0.6,1.1,92,0.00,SCT,BKN,0.00,484.7,WeatherDisplay:10.37,2013-02-10 15:15:00,
2013-02-10 10:20:00,27.9,25.8,30.18,NNE,31,0.0,1.1,92,0.00,BKN,,0.00,575.7,WeatherDisplay:10.37,2013-02-10 15:20:00,
2013-02-10 10:25:00,28.2,26.2,30.18,NNE,31,1.5,3.5,92,0.00,BKN,,0.00,572.4,WeatherDisplay:10.37,2013-02-10 15:25:00,
2013-02-10 10:30:00,28.2,26.2,30.17,NNE,31,0.9,2.3,92,0.00,BKN,,0.00,575.7,WeatherDisplay:10.37,2013-02-10 15:30:00,
2013-02-10 10:35:00,28.8,26.7,30.17,NNE,31,0.3,1.1,92,0.00,BKN,,0.00,580.3,WeatherDisplay:10.37,2013-02-10 15:35:00,
2013-02-10 10:40:00,29.1,27.1,30.17,NNE,31,1.3,3.2,92,0.00,BKN,,0.00,587.0,WeatherDisplay:10.37,2013-02-10 15:40:00,
2013-02-10 10:45:00,28.4,26.4,30.16,NNE,31,3.1,6.1,92,0.00,BKN,,0.00,426.3,WeatherDisplay:10.37,2013-02-10 15:45:00,
2013-02-10 10:50:00,27.5,25.0,30.15,NNE,31,3.1,4.6,90,0.00,BKN,,0.00,442.2,WeatherDisplay:10.37,2013-02-10 15:50:00,
2013-02-10 10:55:00,26.6,24.1,30.16,NNE,31,3.6,5.8,90,0.00,BKN,,0.00,565.7,WeatherDisplay:10.37,2013-02-10 15:55:00,
2013-02-10 11:00:00,26.2,23.7,30.15,NNE,31,4.9,8.1,90,0.00,BKN,,0.00,583.7,WeatherDisplay:10.37,2013-02-10 16:00:00,
2013-02-10 11:05:00,26.1,23.5,30.15,NNE,31,4.9,5.8,90,0.00,BKN,,0.00,594.9,WeatherDisplay:10.37,2013-02-10 16:05:00,
2013-02-10 11:10:00,26.4,24.1,30.15,NNE,31,3.9,6.9,91,0.00,BKN,,0.00,585.0,WeatherDisplay:10.37,2013-02-10 16:10:00,
2013-02-10 11:15:00,26.8,24.8,30.15,NNE,31,2.7,5.8,92,0.00,BKN,,0.00,590.3,WeatherDisplay:10.37,2013-02-10 16:15:00,
2013-02-10 11:20:00,27.3,25.3,30.15,NNE,31,0.6,4.6,92,0.00,BKN,,0.00,588.3,WeatherDisplay:10.37,2013-02-10 16:20:00,
2013-02-10 11:25:00,28.6,26.6,30.14,NNE,31,1.4,4.6,92,0.00,BKN,,0.00,591.6,WeatherDisplay:10.37,2013-02-10 16:25:00,
2013-02-10 11:30:00,29.8,27.8,30.14,NNE,31,0.5,2.3,92,0.00,BKN,,0.00,591.6,WeatherDisplay:10.37,2013-02-10 16:30:00,
2013-02-10 11:35:00,32.0,29.7,30.14,NNE,31,0.2,4.6,91,0.00,BKN,,0.00,596.3,WeatherDisplay:10.37,2013-02-10 16:35:00,
2013-02-10 11:40:00,32.7,29.8,30.14,NNE,31,0.5,2.3,89,0.00,BKN,,0.00,609.6,WeatherDisplay:10.37,2013-02-10 16:40:00,
2013-02-10 11:45:00,33.1,31.0,30.14,NNE,31,3.1,5.8,92,0.00,BKN,,0.00,618.8,WeatherDisplay:10.37,2013-02-10 16:45:00,
2013-02-10 11:50:00,33.1,31.0,30.13,NNE,31,2.5,4.6,92,0.00,BKN,,0.00,612.9,WeatherDisplay:10.37,2013-02-10 16:50:00,
2013-02-10 11:55:00,33.1,31.5,30.13,NNE,31,1.3,3.7,94,0.00,BKN,,0.00,638.8,WeatherDisplay:10.37,2013-02-10 16:55:00,
2013-02-10 12:00:00,33.4,31.9,30.13,NNE,31,1.6,3.5,94,0.00,BKN,,0.00,569.0,WeatherDisplay:10.37,2013-02-10 17:00:00,
2013-02-10 12:05:00,33.6,32.1,30.12,NNE,31,2.2,4.6,94,0.00,BKN,,0.00,664.0,WeatherDisplay:10.37,2013-02-10 17:05:00,
2013-02-10 12:10:00,34.3,32.8,30.11,NNE,31,1.2,4.6,94,0.00,BKN,,0.00,636.8,WeatherDisplay:10.37,2013-02-10 17:10:00,
2013-02-10 12:15:00,34.9,33.3,30.11,NNE,31,0.2,2.3,94,0.00,BKN,,0.00,664.0,WeatherDisplay:10.37,2013-02-10 17:15:00,
2013-02-10 12:20:00,35.2,33.4,30.11,NE,34,1.3,4.9,93,0.00,BKN,,0.00,664.0,WeatherDisplay:10.37,2013-02-10 17:20:00,
2013-02-10 12:25:00,35.4,33.9,30.10,NE,34,3.6,6.2,94,0.00,BKN,,0.00,643.4,WeatherDisplay:10.37,2013-02-10 17:25:00,
2013-02-10 12:30:00,35.2,33.4,30.10,NE,34,2.4,5.8,93,0.00,BKN,,0.00,645.4,WeatherDisplay:10.37,2013-02-10 17:30:00,
2013-02-10 12:35:00,35.6,34.3,30.09,NE,34,1.0,2.3,95,0.00,BKN,,0.00,664.0,WeatherDisplay:10.37,2013-02-10 17:35:00,
2013-02-10 12:40:00,35.8,34.5,30.09,ENE,59,2.6,4.3,95,0.00,BKN,,0.00,664.0,WeatherDisplay:10.37,2013-02-10 17:40:00,
2013-02-10 12:45:00,36.0,34.7,30.09,NE,42,0.6,3.5,95,0.00,BKN,,0.00,664.0,WeatherDisplay:10.37,2013-02-10 17:45:00,
2013-02-10 12:50:00,36.1,34.8,30.09,NE,42,0.3,3.5,95,0.00,BKN,,0.00,549.1,WeatherDisplay:10.37,2013-02-10 17:50:00,
2013-02-10 12:55:00,36.1,34.6,30.09,NE,38,2.4,3.5,94,0.00,BKN,,0.00,276.9,WeatherDisplay:10.37,2013-02-10 17:55:00,
2013-02-10 13:00:00,35.8,34.5,30.10,NE,47,1.5,2.3,95,0.00,BKN,,0.00,257.6,WeatherDisplay:10.37,2013-02-10 18:00:00,
2013-02-10 13:05:00,35.6,34.6,30.10,SSE,148,0.2,1.1,96,0.00,BKN,,0.00,259.6,WeatherDisplay:10.37,2013-02-10 18:05:00,
2013-02-10 13:10:00,35.8,34.8,30.10,NE,42,0.8,2.3,96,0.00,BKN,,0.00,275.6,WeatherDisplay:10.37,2013-02-10 18:10:00,
2013-02-10 13:15:00,35.8,34.8,30.09,SSE,167,1.1,3.5,96,0.00,BKN,,0.00,302.8,WeatherDisplay:10.37,2013-02-10 18:15:00,
2013-02-10 13:20:00,35.8,34.5,30.08,NE,47,0.6,2.5,95,0.00,BKN,,0.00,385.8,WeatherDisplay:10.37,2013-02-10 18:20:00,
2013-02-10 13:25:00,36.1,34.8,30.08,NNE,25,0.4,2.3,95,0.00,BKN,,0.00,462.1,WeatherDisplay:10.37,2013-02-10 18:25:00,
2013-02-10 13:30:00,36.1,34.8,30.07,NE,49,1.4,4.6,95,0.00,BKN,,0.00,392.4,WeatherDisplay:10.37,2013-02-10 18:30:00,
2013-02-10 13:35:00,36.1,35.1,30.06,North,358,0.3,3.5,96,0.00,BKN,,0.00,500.7,WeatherDisplay:10.37,2013-02-10 18:35:00,
2013-02-10 13:40:00,36.3,35.0,30.06,NNE,27,2.1,3.5,95,0.00,BKN,,0.00,521.9,WeatherDisplay:10.37,2013-02-10 18:40:00,
2013-02-10 13:45:00,36.1,34.8,30.06,ENE,68,1.4,3.5,95,0.00,BKN,,0.00,536.5,WeatherDisplay:10.37,2013-02-10 18:45:00,
2013-02-10 13:50:00,36.7,35.1,30.06,NNE,15,0.5,1.1,94,0.00,BKN,,0.00,594.9,WeatherDisplay:10.37,2013-02-10 18:50:00,
2013-02-10 13:55:00,37.2,35.4,30.06,ENE,71,2.0,3.5,93,0.00,BKN,,0.00,643.4,WeatherDisplay:10.37,2013-02-10 18:55:00,
2013-02-10 14:00:00,37.6,35.2,30.06,NE,42,1.1,2.3,91,0.00,BKN,,0.00,664.0,WeatherDisplay:10.37,2013-02-10 19:00:00,
2013-02-10 14:05:00,38.1,34.6,30.06,NW,317,1.1,4.6,87,0.00,BKN,,0.00,624.2,WeatherDisplay:10.37,2013-02-10 19:05:00,
2013-02-10 14:10:00,38.3,34.5,30.06,NNE,12,0.3,1.3,86,0.01,RA,BKN,0.01,624.2,WeatherDisplay:10.37,2013-02-10 19:10:00,
2013-02-10 14:15:00,38.7,32.7,30.06,NE,46,1.8,4.6,79,0.01,RA,BKN,0.01,581.7,WeatherDisplay:10.37,2013-02-10 19:15:00,
2013-02-10 14:20:00,38.8,33.5,30.05,NNE,31,0.7,2.2,81,0.01,BKN,,0.01,541.2,WeatherDisplay:10.37,2013-02-10 19:20:00,
2013-02-10 14:25:00,39.6,32.3,30.06,ENE,68,0.7,1.1,75,0.01,BKN,,0.01,523.2,WeatherDisplay:10.37,2013-02-10 19:25:00,
2013-02-10 14:30:00,39.6,31.6,30.05,NE,56,0.3,2.3,73,0.01,BKN,,0.01,471.4,WeatherDisplay:10.37,2013-02-10 19:30:00,
2013-02-10 14:35:00,39.2,30.2,30.04,NE,47,1.0,2.5,70,0.02,RA,BKN,0.02,400.4,WeatherDisplay:10.37,2013-02-10 19:35:00,
2013-02-10 14:40:00,38.7,28.6,30.04,NE,47,2.1,4.6,67,0.02,RA,BKN,0.02,393.8,WeatherDisplay:10.37,2013-02-10 19:40:00,
2013-02-10 14:45:00,38.1,29.9,30.04,NNE,28,3.6,4.6,72,0.02,BKN,,0.02,390.4,WeatherDisplay:10.37,2013-02-10 19:45:00,
2013-02-10 14:50:00,37.0,29.5,30.04,NE,34,4.2,6.9,74,0.02,BKN,,0.02,392.4,WeatherDisplay:10.37,2013-02-10 19:50:00,
2013-02-10 14:55:00,36.1,29.3,30.04,NE,41,4.6,6.9,76,0.03,RA,BKN,0.03,465.5,WeatherDisplay:10.37,2013-02-10 19:55:00,
2013-02-10 15:00:00,35.8,29.6,30.04,ENE,63,3.9,6.9,78,0.03,RA,BKN,0.03,437.6,WeatherDisplay:10.37,2013-02-10 20:00:00,
2013-02-10 15:05:00,35.2,29.1,30.04,NE,51,5.0,5.8,78,0.03,BKN,,0.03,439.6,WeatherDisplay:10.37,2013-02-10 20:05:00,
2013-02-10 15:10:00,35.2,29.4,30.03,NE,36,3.1,5.8,79,0.02,BKN,,0.03,385.8,WeatherDisplay:10.37,2013-02-10 20:10:00,
2013-02-10 15:15:00,36.1,29.3,30.03,NE,44,0.8,2.5,76,0.02,BKN,,0.03,413.0,WeatherDisplay:10.37,2013-02-10 20:15:00,
2013-02-10 15:20:00,36.7,29.5,30.03,ENE,60,2.5,4.1,75,0.02,BKN,,0.03,500.7,WeatherDisplay:10.37,2013-02-10 20:20:00,
2013-02-10 15:25:00,36.9,29.3,30.03,ENE,65,1.1,4.6,74,0.02,BKN,,0.03,506.0,WeatherDisplay:10.37,2013-02-10 20:25:00,
2013-02-10 15:30:00,37.9,29.4,30.03,NE,56,0.4,3.5,71,0.02,BKN,,0.03,486.0,WeatherDisplay:10.37,2013-02-10 20:30:00,
2013-02-10 15:35:00,38.3,29.4,30.03,NE,42,1.3,4.6,70,0.01,BKN,,0.03,478.1,WeatherDisplay:10.37,2013-02-10 20:35:00,
2013-02-10 15:40:00,38.5,29.5,30.03,NE,54,2.3,4.6,70,0.01,BKN,,0.03,445.5,WeatherDisplay:10.37,2013-02-10 20:40:00,
2013-02-10 15:45:00,37.9,29.7,30.03,NNE,33,1.8,4.6,72,0.01,BKN,,0.03,407.0,WeatherDisplay:10.37,2013-02-10 20:45:00,
2013-02-10 15:50:00,37.9,29.4,30.03,NNE,15,0.8,2.3,71,0.01,BKN,,0.03,381.1,WeatherDisplay:10.37,2013-02-10 20:50:00,
2013-02-10 15:55:00,37.9,29.4,30.02,NE,54,1.5,3.0,71,0.00,BKN,,0.03,389.1,WeatherDisplay:10.37,2013-02-10 20:55:00,
2013-02-10 16:00:00,38.3,29.7,30.02,NE,56,0.7,2.3,71,0.00,BKN,,0.03,329.3,WeatherDisplay:10.37,2013-02-10 21:00:00,
2013-02-10 16:05:00,37.8,29.9,30.02,NE,51,1.3,3.5,73,0.00,BKN,,0.03,302.8,WeatherDisplay:10.37,2013-02-10 21:05:00,
2013-02-10 16:10:00,37.6,30.0,30.02,NE,34,0.7,2.5,74,0.00,BKN,,0.03,233.7,WeatherDisplay:10.37,2013-02-10 21:10:00,
2013-02-10 16:15:00,37.4,29.2,30.02,NNE,21,0.1,1.1,72,0.00,BKN,,0.03,176.6,WeatherDisplay:10.37,2013-02-10 21:15:00,
2013-02-10 16:20:00,37.6,29.4,30.02,NE,47,0.1,1.3,72,0.00,SCT,BKN,0.03,132.8,WeatherDisplay:10.37,2013-02-10 21:20:00,
2013-02-10 16:25:00,37.9,29.0,30.02,NNE,25,0.0,0.0,70,0.00,SCT,BKN,0.03,113.5,WeatherDisplay:10.37,2013-02-10 21:25:00,
2013-02-10 16:30:00,37.6,29.0,30.00,NNE,25,0.5,2.3,71,0.00,SCT,BKN,0.03,100.3,WeatherDisplay:10.37,2013-02-10 21:30:00,
2013-02-10 16:35:00,37.0,29.2,30.00,NNE,25,0.5,2.3,73,0.01,RA,BKN,0.04,79.7,WeatherDisplay:10.37,2013-02-10 21:35:00,
2013-02-10 16:40:00,36.7,29.2,30.00,NNE,19,0.0,2.3,74,0.01,RA,BKN,0.04,66.4,WeatherDisplay:10.37,2013-02-10 21:40:00,
2013-02-10 16:45:00,36.5,28.7,30.01,SE,138,0.9,3.5,73,0.01,SCT,BKN,0.04,58.4,WeatherDisplay:10.37,2013-02-10 21:45:00,
2013-02-10 16:50:00,36.3,29.5,30.02,SE,128,2.8,3.8,76,0.01,SCT,BKN,0.04,50.5,WeatherDisplay:10.37,2013-02-10 21:50:00,
2013-02-10 16:55:00,35.8,29.3,30.02,NNE,33,1.2,4.6,77,0.01,SCT,BKN,0.04,45.2,WeatherDisplay:10.37,2013-02-10 21:55:00,
2013-02-10 17:00:00,35.8,29.0,30.02,NE,51,0.0,0.0,76,0.01,SCT,BKN,0.04,40.5,WeatherDisplay:10.37,2013-02-10 22:00:00,
2013-02-10 17:05:00,35.8,28.6,30.01,North,8,0.0,0.0,75,0.01,SCT,BKN,0.04,32.5,WeatherDisplay:10.37,2013-02-10 22:05:00,
2013-02-10 17:10:00,35.4,28.9,30.00,NE,38,0.0,1.1,77,0.01,SCT,BKN,0.04,27.2,WeatherDisplay:10.37,2013-02-10 22:10:00,
2013-02-10 17:15:00,34.9,29.0,30.00,NE,49,0.4,1.1,79,0.01,SCT,BKN,0.04,19.3,WeatherDisplay:10.37,2013-02-10 22:15:00,
2013-02-10 17:20:00,34.3,29.1,30.00,NE,51,0.5,2.3,81,0.01,BKN,,0.04,13.3,WeatherDisplay:10.37,2013-02-10 22:20:00,
2013-02-10 17:25:00,34.0,29.1,30.00,ENE,60,0.9,2.5,82,0.01,BKN,,0.04,10.0,WeatherDisplay:10.37,2013-02-10 22:25:00,
2013-02-10 17:30:00,33.6,29.0,29.99,NE,47,0.7,2.3,83,0.01,BKN,,0.04,4.6,WeatherDisplay:10.37,2013-02-10 22:30:00,
2013-02-10 17:35:00,33.4,28.8,29.99,ENE,57,0.9,2.3,83,0.00,BKN,,0.04,3.3,WeatherDisplay:10.37,2013-02-10 22:35:00,
2013-02-10 17:40:00,33.1,28.8,29.99,ENE,59,1.2,3.5,84,0.00,BKN,,0.04,3.3,WeatherDisplay:10.37,2013-02-10 22:40:00,
2013-02-10 17:45:00,33.1,29.1,29.98,NNE,32,0.3,1.1,85,0.00,BKN,,0.04,1.3,WeatherDisplay:10.37,2013-02-10 22:45:00,
2013-02-10 17:50:00,32.7,29.0,29.98,NE,38,1.4,3.5,86,0.00,BKN,,0.04,0.0,WeatherDisplay:10.37,2013-02-10 22:50:00,
2013-02-10 17:55:00,32.7,29.0,29.98,NNE,19,0.4,3.5,86,0.00,BKN,,0.04,1.3,WeatherDisplay:10.37,2013-02-10 22:55:00,
2013-02-10 18:00:00,32.5,28.5,29.98,NNE,23,0.0,0.0,85,0.00,BKN,,0.04,0.0,WeatherDisplay:10.37,2013-02-10 23:00:00,
2013-02-10 18:05:00,32.4,28.4,29.98,NNE,21,1.0,3.5,85,0.00,BKN,,0.04,0.0,WeatherDisplay:10.37,2013-02-10 23:05:00,
2013-02-10 18:10:00,32.2,27.9,29.98,NNE,17,0.0,0.0,84,0.00,BKN,,0.04,0.0,WeatherDisplay:10.37,2013-02-10 23:10:00,
2013-02-10 18:15:00,32.4,28.1,29.98,NNE,27,0.0,0.0,84,0.00,BKN,,0.04,0.0,WeatherDisplay:10.37,2013-02-10 23:15:00,
2013-02-10 18:20:00,32.4,28.1,29.98,East,98,0.0,0.0,84,0.00,OVC,BKN,0.04,0.0,WeatherDisplay:10.37,2013-02-10 23:20:00,
2013-02-10 18:25:00,32.2,27.9,29.98,NE,42,0.1,1.1,84,0.00,OVC,BKN,0.04,0.0,WeatherDisplay:10.37,2013-02-10 23:25:00,
2013-02-10 18:30:00,32.0,28.3,29.97,NNE,19,2.0,4.6,86,0.00,OVC,BKN,0.04,0.0,WeatherDisplay:10.37,2013-02-10 23:30:00,
2013-02-10 18:35:00,31.8,28.1,29.96,NE,36,0.2,2.3,86,0.00,OVC,BKN,0.04,0.0,WeatherDisplay:10.37,2013-02-10 23:35:00,
2013-02-10 18:40:00,31.8,28.1,29.96,ESE,120,0.1,1.3,86,0.00,OVC,BKN,0.04,0.0,WeatherDisplay:10.37,2013-02-10 23:40:00,
2013-02-10 18:45:00,31.8,27.8,29.95,NE,35,0.4,2.3,85,0.00,OVC,BKN,0.04,0.0,WeatherDisplay:10.37,2013-02-10 23:45:00,
2013-02-10 18:50:00,31.8,27.8,29.95,NNE,14,0.1,1.1,85,0.00,OVC,BKN,0.04,0.0,WeatherDisplay:10.37,2013-02-10 23:50:00,
2013-02-10 18:55:00,32.0,27.7,29.94,North,9,0.5,3.5,84,0.00,OVC,BKN,0.04,0.0,WeatherDisplay:10.37,2013-02-10 23:55:00,
2013-02-10 19:00:00,32.4,27.8,29.94,ESE,111,0.9,4.6,83,0.00,OVC,BKN,0.04,0.0,WeatherDisplay:10.37,2013-02-11 00:00:00,
2013-02-10 19:05:00,32.7,27.2,29.93,South,176,5.7,8.1,80,0.00,OVC,BKN,0.04,0.0,WeatherDisplay:10.37,2013-02-11 00:05:00,
2013-02-10 19:10:00,33.6,27.2,29.94,SE,130,4.1,11.5,77,0.00,OVC,BKN,0.04,0.0,WeatherDisplay:10.37,2013-02-11 00:10:00,
2013-02-10 19:15:00,34.2,26.7,29.93,SSE,160,6.7,10.4,74,0.00,OVC,BKN,0.04,0.0,WeatherDisplay:10.37,2013-02-11 00:15:00,
2013-02-10 19:20:00,34.7,27.3,29.93,SE,124,6.4,9.4,74,0.00,OVC,BKN,0.04,0.0,WeatherDisplay:10.37,2013-02-11 00:20:00,
2013-02-10 19:25:00,35.1,26.9,29.93,SE,128,7.7,9.2,72,0.00,OVC,BKN,0.04,0.0,WeatherDisplay:10.37,2013-02-11 00:25:00,
2013-02-10 19:30:00,35.4,27.3,29.93,SSE,158,7.9,10.4,72,0.00,OVC,BKN,0.04,0.0,WeatherDisplay:10.37,2013-02-11 00:30:00,
2013-02-10 19:35:00,36.1,26.9,29.93,SE,141,7.5,12.7,69,0.00,OVC,BKN,0.04,0.0,WeatherDisplay:10.37,2013-02-11 00:35:00,
2013-02-10 19:40:00,36.3,27.5,29.93,South,174,6.0,8.1,70,0.00,OVC,BKN,0.04,0.0,WeatherDisplay:10.37,2013-02-11 00:40:00,
2013-02-10 19:45:00,36.7,27.5,29.93,SE,141,5.7,6.9,69,0.00,OVC,BKN,0.04,0.0,WeatherDisplay:10.37,2013-02-11 00:45:00,
2013-02-10 19:50:00,37.2,28.0,29.92,SE,135,5.4,6.9,69,0.00,OVC,BKN,0.04,0.0,WeatherDisplay:10.37,2013-02-11 00:50:00,
2013-02-10 19:55:00,37.6,27.6,29.92,ESE,123,5.3,9.2,67,0.00,OVC,BKN,0.04,0.0,WeatherDisplay:10.37,2013-02-11 00:55:00,
2013-02-10 20:00:00,37.9,26.8,29.91,NE,55,7.9,12.1,64,0.00,OVC,BKN,0.04,0.0,WeatherDisplay:10.37,2013-02-11 01:00:00,
2013-02-10 20:05:00,38.1,26.6,29.91,SE,138,7.8,13.8,63,0.00,OVC,BKN,0.04,0.0,WeatherDisplay:10.37,2013-02-11 01:05:00,
2013-02-10 20:10:00,38.5,27.0,29.90,SE,146,7.4,10.4,63,0.00,OVC,BKN,0.04,0.0,WeatherDisplay:10.37,2013-02-11 01:10:00,
2013-02-10 20:15:00,38.7,26.4,29.90,SSE,156,8.6,12.7,61,0.00,OVC,BKN,0.04,0.0,WeatherDisplay:10.37,2013-02-11 01:15:00,
2013-02-10 20:20:00,38.8,27.3,29.90,SSE,163,7.6,9.2,63,0.00,OVC,BKN,0.04,0.0,WeatherDisplay:10.37,2013-02-11 01:20:00,
2013-02-10 20:25:00,38.8,29.2,29.90,ESE,111,6.5,11.5,68,0.00,OVC,BKN,0.04,0.0,WeatherDisplay:10.37,2013-02-11 01:25:00,
2013-02-10 20:30:00,39.0,27.9,29.90,South,174,6.0,10.4,64,0.00,OVC,BKN,0.04,0.0,WeatherDisplay:10.37,2013-02-11 01:30:00,
2013-02-10 20:35:00,39.0,28.6,29.89,SE,146,4.7,8.1,66,0.00,OVC,BKN,0.04,0.0,WeatherDisplay:10.37,2013-02-11 01:35:00,
2013-02-10 20:40:00,39.4,28.2,29.89,ESE,114,7.5,9.2,64,0.00,OVC,BKN,0.04,0.0,WeatherDisplay:10.37,2013-02-11 01:40:00,
2013-02-10 20:45:00,39.4,28.2,29.89,SE,138,6.5,10.4,64,0.00,OVC,BKN,0.04,0.0,WeatherDisplay:10.37,2013-02-11 01:45:00,
2013-02-10 20:50:00,39.4,28.6,29.89,South,188,6.2,12.7,65,0.00,OVC,BKN,0.04,0.0,WeatherDisplay:10.37,2013-02-11 01:50:00,
2013-02-10 20:55:00,39.4,27.8,29.89,SE,139,7.2,12.7,63,0.00,OVC,BKN,0.04,0.0,WeatherDisplay:10.37,2013-02-11 01:55:00,
2013-02-10 21:00:00,39.7,27.8,29.89,SSE,167,6.1,9.2,62,0.00,OVC,BKN,0.04,0.0,WeatherDisplay:10.37,2013-02-11 02:00:00,
2013-02-10 21:05:00,39.7,28.2,29.89,SE,127,8.0,11.5,63,0.00,OVC,BKN,0.04,0.0,WeatherDisplay:10.37,2013-02-11 02:05:00,
2013-02-10 21:10:00,39.9,27.5,29.89,SE,146,8.0,15.0,61,0.00,OVC,BKN,0.04,0.0,WeatherDisplay:10.37,2013-02-11 02:10:00,
2013-02-10 21:15:00,40.1,28.1,29.88,SE,146,7.3,13.8,62,0.00,OVC,BKN,0.04,0.0,WeatherDisplay:10.37,2013-02-11 02:15:00,
2013-02-10 21:20:00,39.9,27.1,29.88,SE,145,7.5,12.7,60,0.00,OVC,BKN,0.04,0.0,WeatherDisplay:10.37,2013-02-11 02:20:00,
2013-02-10 21:25:00,40.3,27.9,29.88,SE,142,8.6,12.4,61,0.00,OVC,BKN,0.04,0.0,WeatherDisplay:10.37,2013-02-11 02:25:00,
2013-02-10 21:30:00,40.5,26.8,29.88,ESE,120,7.9,13.8,58,0.00,OVC,BKN,0.04,0.0,WeatherDisplay:10.37,2013-02-11 02:30:00,
2013-02-10 21:35:00,40.5,27.7,29.87,SSE,164,6.6,10.4,60,0.00,OVC,BKN,0.04,0.0,WeatherDisplay:10.37,2013-02-11 02:35:00,
2013-02-10 21:40:00,40.6,27.0,29.87,SE,126,5.7,10.0,58,0.00,OVC,BKN,0.04,0.0,WeatherDisplay:10.37,2013-02-11 02:40:00,
2013-02-10 21:45:00,40.6,26.6,29.87,SE,128,5.8,9.2,57,0.00,OVC,BKN,0.04,0.0,WeatherDisplay:10.37,2013-02-11 02:45:00,
2013-02-10 21:50:00,40.6,25.3,29.87,SE,130,6.5,10.4,54,0.00,OVC,BKN,0.04,0.0,WeatherDisplay:10.37,2013-02-11 02:50:00,
2013-02-10 21:55:00,40.8,26.7,29.87,ESE,111,5.6,9.4,57,0.00,OVC,BKN,0.04,0.0,WeatherDisplay:10.37,2013-02-11 02:55:00,
2013-02-10 22:00:00,40.8,25.0,29.85,SSE,163,7.7,13.8,53,0.00,OVC,BKN,0.04,0.0,WeatherDisplay:10.37,2013-02-11 03:00:00,
2013-02-10 22:05:00,40.8,25.4,29.86,SSE,150,4.0,6.9,54,0.00,OVC,BKN,0.04,0.0,WeatherDisplay:10.37,2013-02-11 03:05:00,
2013-02-10 22:10:00,41.0,25.6,29.85,SE,137,3.1,4.6,54,0.00,OVC,BKN,0.04,0.0,WeatherDisplay:10.37,2013-02-11 03:10:00,
2013-02-10 22:15:00,40.8,25.4,29.85,SSE,154,3.7,10.4,54,0.00,OVC,BKN,0.04,0.0,WeatherDisplay:10.37,2013-02-11 03:15:00,
2013-02-10 22:20:00,41.0,26.1,29.84,SSE,154,3.5,5.8,55,0.00,OVC,BKN,0.04,0.0,WeatherDisplay:10.37,2013-02-11 03:20:00,
2013-02-10 22:25:00,40.8,25.4,29.84,South,191,4.3,8.1,54,0.00,OVC,BKN,0.04,0.0,WeatherDisplay:10.37,2013-02-11 03:25:00,
2013-02-10 22:30:00,40.8,25.4,29.83,SSE,163,4.6,9.2,54,0.00,OVC,BKN,0.04,0.0,WeatherDisplay:10.37,2013-02-11 03:30:00,
2013-02-10 22:35:00,40.6,25.3,29.83,SE,138,6.2,11.5,54,0.00,OVC,BKN,0.04,0.0,WeatherDisplay:10.37,2013-02-11 03:35:00,
2013-02-10 22:40:00,40.8,25.0,29.83,SSE,161,6.3,11.5,53,0.00,OVC,BKN,0.04,0.0,WeatherDisplay:10.37,2013-02-11 03:40:00,
2013-02-10 22:45:00,40.6,24.8,29.83,SE,135,9.6,16.1,53,0.00,OVC,BKN,0.04,0.0,WeatherDisplay:10.37,2013-02-11 03:45:00,
2013-02-10 22:50:00,40.5,25.1,29.83,ESE,103,9.9,12.9,54,0.00,OVC,BKN,0.04,0.0,WeatherDisplay:10.37,2013-02-11 03:50:00,
2013-02-10 22:55:00,40.5,24.7,29.83,ESE,122,10.7,17.4,53,0.00,OVC,BKN,0.04,0.0,WeatherDisplay:10.37,2013-02-11 03:55:00,
2013-02-10 23:00:00,40.6,24.8,29.83,South,175,7.5,12.7,53,0.00,OVC,BKN,0.04,0.0,WeatherDisplay:10.37,2013-02-11 04:00:00,
2013-02-10 23:05:00,40.6,24.8,29.83,South,179,5.3,9.9,53,0.00,OVC,BKN,0.04,0.0,WeatherDisplay:10.37,2013-02-11 04:05:00,
2013-02-10 23:10:00,40.6,24.4,29.83,South,179,5.3,9.2,52,0.00,OVC,BKN,0.04,0.0,WeatherDisplay:10.37,2013-02-11 04:10:00,
2013-02-10 23:15:00,40.6,24.8,29.82,SSE,159,7.5,9.2,53,0.00,OVC,BKN,0.04,0.0,WeatherDisplay:10.37,2013-02-11 04:15:00,
2013-02-10 23:20:00,40.5,25.1,29.82,ESE,112,4.8,6.9,54,0.00,OVC,BKN,0.04,0.0,WeatherDisplay:10.37,2013-02-11 04:20:00,
2013-02-10 23:25:00,40.5,24.7,29.82,South,187,6.7,12.7,53,0.00,OVC,BKN,0.04,0.0,WeatherDisplay:10.37,2013-02-11 04:25:00,
2013-02-10 23:30:00,40.5,25.1,29.81,South,174,8.9,16.1,54,0.00,OVC,BKN,0.04,0.0,WeatherDisplay:10.37,2013-02-11 04:30:00,
2013-02-10 23:35:00,40.5,24.7,29.82,South,189,5.5,10.4,53,0.00,OVC,BKN,0.04,0.0,WeatherDisplay:10.37,2013-02-11 04:35:00,
2013-02-10 23:40:00,40.6,25.3,29.82,SE,145,4.3,8.1,54,0.00,OVC,BKN,0.04,0.0,WeatherDisplay:10.37,2013-02-11 04:40:00,
2013-02-10 23:45:00,40.6,24.8,29.81,SSW,195,4.2,8.1,53,0.00,OVC,BKN,0.04,0.0,WeatherDisplay:10.37,2013-02-11 04:45:00,
2013-02-10 23:50:00,40.6,26.2,29.81,South,180,4.2,6.9,56,0.00,OVC,BKN,0.04,0.0,WeatherDisplay:10.37,2013-02-11 04:50:00,
2013-02-10 23:55:00,40.6,25.7,29.81,SSE,153,6.7,10.4,55,0.00,OVC,BKN,0.04,0.0,WeatherDisplay:10.37,2013-02-11 04:55:00,